createdAt,value
2022-11-10T00:01:48.990Z,49.00
2022-11-10T00:06:50.772Z,47.90
2022-11-10T00:11:52.563Z,48.58
2022-11-10T00:17:04.847Z,51.85
2022-11-10T00:22:06.736Z,49.33
2022-11-10T00:27:08.585Z,49.38
2022-11-10T00:32:10.717Z,50.88
2022-11-10T00:37:12.695Z,51.55
2022-11-10T00:42:14.461Z,50.42
2022-11-10T00:47:16.374Z,50.78
2022-11-10T00:52:18.199Z,49.92
2022-11-10T00:57:19.940Z,48.95
2022-11-10T01:02:21.811Z,50.67
2022-11-10T01:07:23.598Z,48.38
2022-11-10T01:12:29.462Z,48.80
2022-11-10T01:17:31.408Z,48.40
2022-11-10T01:22:33.177Z,51.10
2022-11-10T01:27:35.424Z,49.67
2022-11-10T01:32:37.175Z,50.67
2022-11-10T01:37:40.031Z,48.28
2022-11-10T01:42:51.223Z,47.30
2022-11-10T01:47:57.910Z,48.45
2022-11-10T01:53:02.859Z,47.10
2022-11-10T01:58:05.596Z,47.70
2022-11-10T02:03:18.701Z,46.45
2022-11-10T02:08:23.233Z,46.65
2022-11-10T02:13:25.694Z,46.88
2022-11-10T02:18:27.466Z,46.13
2022-11-10T02:23:34.735Z,45.85
2022-11-10T02:28:37.745Z,46.30
2022-11-10T02:33:39.732Z,46.95
2022-11-10T02:38:41.599Z,47.95
2022-11-10T02:43:43.414Z,46.20
2022-11-10T02:48:45.196Z,45.95
2022-11-10T02:53:47.036Z,47.70
2022-11-10T02:58:48.932Z,47.75
2022-11-10T03:03:50.845Z,46.13
2022-11-10T03:08:52.630Z,48.13
2022-11-10T03:14:02.572Z,49.47
2022-11-10T03:19:04.660Z,48.13
2022-11-10T03:24:06.490Z,49.60
2022-11-10T03:29:08.433Z,50.35
2022-11-10T03:34:10.361Z,48.50
2022-11-10T03:39:12.110Z,49.25
2022-11-10T03:44:13.918Z,52.15
2022-11-10T03:49:15.899Z,55.10
2022-11-10T03:54:17.636Z,55.42
2022-11-10T03:59:19.372Z,54.97
2022-11-10T04:04:39.970Z,53.85
2022-11-10T04:09:41.722Z,56.85
2022-11-10T04:15:02.076Z,56.53
2022-11-10T04:20:04.844Z,57.90
2022-11-10T04:25:06.965Z,57.65
2022-11-10T04:30:09.201Z,57.50
2022-11-10T04:35:11.051Z,58.92
2022-11-10T04:40:12.960Z,59.00
2022-11-10T04:45:14.820Z,58.88
2022-11-10T04:50:16.681Z,58.15
2022-11-10T04:55:18.426Z,60.08
2022-11-10T05:00:20.757Z,57.72
2022-11-10T05:05:22.501Z,57.92
2022-11-10T05:10:25.851Z,59.40
2022-11-10T05:15:27.677Z,59.28
2022-11-10T05:20:29.446Z,59.35
2022-11-10T05:25:31.416Z,59.90
2022-11-10T05:30:34.408Z,59.10
2022-11-10T05:35:36.775Z,57.13
2022-11-10T05:40:38.535Z,60.55
2022-11-10T05:45:40.248Z,58.00
2022-11-10T05:50:43.572Z,57.90
2022-11-10T05:55:45.285Z,58.08
2022-11-10T06:00:47.098Z,59.92
2022-11-10T06:05:48.922Z,58.78
2022-11-10T06:10:51.006Z,56.20
2022-11-10T06:15:52.951Z,56.50
2022-11-10T06:20:54.716Z,60.13
2022-11-10T06:25:56.471Z,57.50
2022-11-10T06:30:59.153Z,63.95
2022-11-10T06:36:00.915Z,62.42
2022-11-10T06:41:02.664Z,61.85
2022-11-10T06:46:05.008Z,64.28
2022-11-10T06:51:06.769Z,62.45
2022-11-10T06:56:08.667Z,60.25
2022-11-10T07:01:10.601Z,56.50
2022-11-10T07:06:12.509Z,52.83
2022-11-10T07:11:14.440Z,51.30
2022-11-10T07:16:19.357Z,48.83
2022-11-10T07:21:25.101Z,49.90
2022-11-10T07:26:27.017Z,48.45
2022-11-10T07:31:29.067Z,48.17
2022-11-10T07:36:30.908Z,50.15
2022-11-10T07:41:32.990Z,46.60
2022-11-10T07:46:34.723Z,43.72
2022-11-10T07:51:36.481Z,44.13
2022-11-10T07:56:38.251Z,41.60
2022-11-10T08:01:40.020Z,43.60
2022-11-10T08:06:42.007Z,40.20
2022-11-10T08:11:43.815Z,38.83
2022-11-10T08:16:45.597Z,36.17
2022-11-10T08:21:47.449Z,35.47
2022-11-10T08:26:50.016Z,34.35
2022-11-10T08:31:53.174Z,34.63
2022-11-10T08:36:55.043Z,35.20
2022-11-10T08:41:56.771Z,34.30
2022-11-10T08:46:58.498Z,32.42
2022-11-10T08:52:00.229Z,30.63
2022-11-10T08:57:02.267Z,30.92
2022-11-10T09:02:04.023Z,32.17
2022-11-10T09:07:05.807Z,32.95
2022-11-10T09:12:07.780Z,28.73
2022-11-10T09:17:09.645Z,28.98
2022-11-10T09:22:11.368Z,29.05
2022-11-10T09:27:13.151Z,27.83
2022-11-10T09:32:14.907Z,26.83
2022-11-10T09:37:16.793Z,27.67
2022-11-10T09:42:31.958Z,25.35
2022-11-10T09:47:56.971Z,25.45
2022-11-10T09:53:00.968Z,25.85
2022-11-10T09:58:03.503Z,26.05
2022-11-10T10:03:06.370Z,24.58
2022-11-10T10:08:36.944Z,24.77
2022-11-10T10:13:53.819Z,24.98
2022-11-10T10:19:33.629Z,26.95
2022-11-10T10:24:38.204Z,27.05
2022-11-10T10:29:43.548Z,24.27
2022-11-10T10:34:46.290Z,26.02
2022-11-10T10:39:51.271Z,26.52
2022-11-10T10:45:25.071Z,28.73
2022-11-10T10:50:32.210Z,25.65
2022-11-10T10:55:35.431Z,26.45
2022-11-10T11:00:48.849Z,25.42
2022-11-10T11:06:15.742Z,24.90
2022-11-10T11:11:17.483Z,25.05
2022-11-10T11:16:19.261Z,24.27
2022-11-10T11:21:42.415Z,24.35
2022-11-10T11:27:06.241Z,23.52
2022-11-10T11:32:49.425Z,22.00
2022-11-10T11:38:00.513Z,21.33
2022-11-10T11:43:08.134Z,22.58
2022-11-10T11:49:17.587Z,21.55
2022-11-10T11:54:36.324Z,21.10
2022-11-10T12:05:36.757Z,22.77
2022-11-10T12:10:47.405Z,23.52
2022-11-10T12:16:03.966Z,23.20
2022-11-10T12:21:14.491Z,23.35
2022-11-10T12:26:37.957Z,22.17
2022-11-10T12:31:42.963Z,21.50
2022-11-10T12:36:45.997Z,22.98
2022-11-10T12:41:57.419Z,21.35
2022-11-10T12:47:05.222Z,21.77
2022-11-10T12:52:13.997Z,23.53
2022-11-10T13:02:38.482Z,24.40
2022-11-10T13:07:51.577Z,23.70
2022-11-10T13:13:01.045Z,24.13
2022-11-10T13:18:03.005Z,25.73
2022-11-10T13:23:35.807Z,24.52
2022-11-10T13:28:56.122Z,24.25
2022-11-10T13:34:10.037Z,26.15
2022-11-10T13:39:22.581Z,26.35
2022-11-10T13:44:29.979Z,26.40
2022-11-10T13:49:47.468Z,27.58
2022-11-10T13:55:23.513Z,27.38
2022-11-10T14:00:32.044Z,27.83
2022-11-10T14:05:41.642Z,27.40
2022-11-10T14:10:56.155Z,27.90
2022-11-10T14:15:58.707Z,31.40
2022-11-10T14:21:02.075Z,26.65
2022-11-10T14:26:06.971Z,24.15
2022-11-10T14:31:22.387Z,25.73
2022-11-10T14:36:25.196Z,25.25
2022-11-10T14:41:27.067Z,26.10
2022-11-10T14:46:29.183Z,26.63
2022-11-10T14:51:31.202Z,26.92
2022-11-10T14:56:37.457Z,27.15
2022-11-10T15:01:42.615Z,29.05
2022-11-10T15:06:52.523Z,27.23
2022-11-10T15:12:03.350Z,26.27
2022-11-10T15:17:17.856Z,26.48
2022-11-10T15:22:29.653Z,25.63
2022-11-10T15:27:32.334Z,25.90
2022-11-10T15:32:40.611Z,24.58
2022-11-10T15:37:42.329Z,28.38
2022-11-10T15:42:44.144Z,29.13
2022-11-10T15:47:46.146Z,29.02
2022-11-10T15:52:47.921Z,28.73
2022-11-10T15:57:49.793Z,29.00
2022-11-10T16:02:51.589Z,28.63
2022-11-10T16:07:53.434Z,28.58
2022-11-10T16:12:55.328Z,28.75
2022-11-10T16:17:57.104Z,31.33
2022-11-10T16:22:58.890Z,30.83
2022-11-10T16:28:05.557Z,32.45
2022-11-10T16:33:18.387Z,28.92
2022-11-10T16:38:23.956Z,26.27
2022-11-10T16:43:27.319Z,25.45
2022-11-10T16:48:33.014Z,26.05
2022-11-10T16:53:37.977Z,26.00
2022-11-10T16:58:39.738Z,24.25
2022-11-10T17:03:45.848Z,25.08
2022-11-10T17:08:53.057Z,23.23
2022-11-10T17:13:54.829Z,22.85
2022-11-10T17:18:59.654Z,20.60
2022-11-10T17:24:02.153Z,19.80
2022-11-10T17:29:04.167Z,20.60
2022-11-10T17:34:06.191Z,19.98
2022-11-10T17:39:12.793Z,18.33
2022-11-10T17:44:16.452Z,18.05
2022-11-10T17:49:18.315Z,18.40
2022-11-10T17:54:20.205Z,17.27
2022-11-10T17:59:21.918Z,16.50
2022-11-10T18:04:23.706Z,16.00
2022-11-10T18:09:25.438Z,15.10
2022-11-10T18:14:27.438Z,12.23
2022-11-10T18:19:29.322Z,12.30
2022-11-10T18:24:31.224Z,12.02
2022-11-10T18:29:33.049Z,11.27
2022-11-10T18:34:34.985Z,11.43
2022-11-10T18:39:36.859Z,10.32
2022-11-10T18:44:39.351Z,10.98
2022-11-10T18:49:41.150Z,10.15
2022-11-10T18:54:43.004Z,9.88
2022-11-10T18:59:45.471Z,9.73
2022-11-10T19:04:52.093Z,9.50
2022-11-10T19:09:55.372Z,9.97
2022-11-10T19:14:57.236Z,9.27
2022-11-10T19:19:58.936Z,8.77
2022-11-10T19:25:08.149Z,8.40
2022-11-10T19:30:11.354Z,8.65
2022-11-10T19:35:13.587Z,8.45
2022-11-10T19:40:15.514Z,8.88
2022-11-10T19:45:17.760Z,8.27
2022-11-10T19:50:19.700Z,9.27
2022-11-10T19:55:21.662Z,9.35
2022-11-10T20:00:23.445Z,8.63
2022-11-10T20:05:25.277Z,9.35
2022-11-10T20:10:29.308Z,7.95
2022-11-10T20:15:31.206Z,7.72
2022-11-10T20:20:32.980Z,6.78
2022-11-10T20:25:35.453Z,7.55
2022-11-10T20:30:41.841Z,6.82
2022-11-10T20:35:44.318Z,6.85
2022-11-10T20:40:46.158Z,6.75
2022-11-10T20:45:52.566Z,6.55
2022-11-10T20:50:54.324Z,6.15
2022-11-10T20:55:58.629Z,6.25
2022-11-10T21:01:06.279Z,5.68
2022-11-10T21:06:09.244Z,5.30
2022-11-10T21:11:11.287Z,5.93
2022-11-10T21:16:13.009Z,6.78
2022-11-10T21:21:23.794Z,6.30
2022-11-10T21:26:25.543Z,7.20
2022-11-10T21:31:27.771Z,6.70
2022-11-10T21:36:29.951Z,7.07
2022-11-10T21:41:32.223Z,7.93
2022-11-10T21:46:34.017Z,7.25
2022-11-10T21:51:36.037Z,7.15
2022-11-10T21:56:38.346Z,7.35
2022-11-10T22:01:40.299Z,8.05
2022-11-10T22:07:00.846Z,7.13
2022-11-10T22:12:21.320Z,7.30
2022-11-10T22:17:41.932Z,7.55
2022-11-10T22:22:44.278Z,8.27
2022-11-10T22:27:46.252Z,8.25
2022-11-10T22:32:47.971Z,8.27
2022-11-10T22:37:49.841Z,8.75
2022-11-10T22:43:10.423Z,9.13
2022-11-10T22:48:27.656Z,8.52
2022-11-10T22:53:30.795Z,8.98
2022-11-10T22:58:32.597Z,8.82
2022-11-10T23:03:35.393Z,9.65
2022-11-10T23:08:37.558Z,10.05
2022-11-10T23:13:40.221Z,9.40
2022-11-10T23:18:43.526Z,9.27
2022-11-10T23:23:46.989Z,8.68
2022-11-10T23:28:48.818Z,8.40
2022-11-10T23:33:52.834Z,9.10
2022-11-10T23:38:55.232Z,8.32
2022-11-10T23:43:57.094Z,8.25
2022-11-10T23:48:58.971Z,8.75
2022-11-10T23:54:00.936Z,8.75
2022-11-10T23:59:02.841Z,8.80
